createdAt,value
2018-06-03T00:00:50.279Z,73.90
2018-06-03T00:03:16.390Z,73.80
2018-06-03T00:05:42.488Z,74.80
2018-06-03T00:08:08.598Z,74.10
2018-06-03T00:10:34.723Z,74.20
2018-06-03T00:13:00.843Z,74.20
2018-06-03T00:15:26.987Z,74.20
2018-06-03T00:17:53.094Z,74.10
2018-06-03T00:20:31.660Z,74.10
2018-06-03T00:22:57.772Z,74.20
2018-06-03T00:25:23.956Z,74.20
2018-06-03T00:27:50.880Z,75.10
2018-06-03T00:30:17.057Z,74.50
2018-06-03T00:32:43.965Z,74.70
2018-06-03T00:35:10.181Z,74.70
2018-06-03T00:37:36.345Z,74.90
2018-06-03T00:40:03.293Z,75.10
2018-06-03T00:42:29.475Z,75.10
2018-06-03T00:44:55.658Z,75.10
2018-06-03T00:47:21.830Z,75.40
2018-06-03T00:49:48.044Z,75.80
2018-06-03T00:52:14.230Z,76.00
2018-06-03T00:54:41.159Z,76.20
2018-06-03T00:57:08.099Z,76.40
2018-06-03T01:00:11.223Z,76.30
2018-06-03T01:02:38.646Z,76.90
2018-06-03T01:07:33.475Z,77.00
2018-06-03T01:10:00.871Z,76.80
2018-06-03T01:12:28.260Z,76.60
2018-06-03T01:14:55.659Z,76.50
2018-06-03T01:17:23.057Z,76.30
2018-06-03T01:19:50.433Z,76.00
2018-06-03T01:22:17.827Z,76.20
2018-06-03T01:24:45.209Z,75.90
2018-06-03T01:27:12.583Z,75.80
2018-06-03T01:29:39.985Z,75.70
2018-06-03T01:32:07.376Z,75.60
2018-06-03T01:34:34.814Z,75.50
2018-06-03T01:37:02.189Z,75.40
2018-06-03T01:39:29.603Z,75.50
2018-06-03T01:41:57.015Z,75.70
2018-06-03T01:44:24.407Z,75.80
2018-06-03T01:46:51.804Z,76.00
2018-06-03T01:49:19.216Z,76.20
2018-06-03T01:51:46.609Z,76.40
2018-06-03T01:54:14.015Z,76.50
2018-06-03T01:56:41.437Z,76.60
2018-06-03T01:59:08.825Z,76.60
2018-06-03T02:01:36.184Z,76.50
2018-06-03T02:04:03.572Z,76.80
2018-06-03T02:06:30.967Z,76.60
2018-06-03T02:08:58.348Z,76.50
2018-06-03T02:11:25.748Z,76.40
2018-06-03T02:13:53.156Z,76.40
2018-06-03T02:16:20.543Z,76.20
2018-06-03T02:18:47.943Z,76.30
2018-06-03T02:21:15.349Z,76.20
2018-06-03T02:23:42.732Z,76.20
2018-06-03T02:26:10.139Z,76.10
2018-06-03T02:28:37.520Z,75.80
2018-06-03T02:31:04.907Z,75.80
2018-06-03T02:33:32.313Z,75.60
2018-06-03T02:35:59.707Z,75.40
2018-06-03T02:38:27.096Z,75.40
2018-06-03T02:40:54.496Z,75.30
2018-06-03T02:43:21.868Z,75.40
2018-06-03T02:45:49.255Z,75.40
2018-06-03T02:48:16.644Z,75.60
2018-06-03T02:50:44.023Z,75.80
2018-06-03T02:53:11.445Z,76.00
2018-06-03T02:55:38.859Z,76.20
2018-06-03T02:58:06.276Z,76.60
2018-06-03T03:00:33.672Z,76.80
2018-06-03T03:03:01.065Z,76.90
2018-06-03T03:05:28.445Z,77.30
2018-06-03T03:07:55.827Z,77.50
2018-06-03T03:10:23.221Z,77.40
2018-06-03T03:12:50.604Z,77.40
2018-06-03T03:15:17.991Z,77.50
2018-06-03T03:17:45.384Z,77.60
2018-06-03T03:20:12.767Z,77.60
2018-06-03T03:22:40.162Z,77.00
2018-06-03T03:25:07.567Z,77.90
2018-06-03T03:27:34.960Z,78.30
2018-06-03T03:30:02.339Z,78.50
2018-06-03T03:32:29.739Z,78.70
2018-06-03T03:34:57.132Z,78.50
2018-06-03T03:37:24.507Z,78.70
2018-06-03T03:39:51.896Z,78.80
2018-06-03T03:42:19.275Z,78.90
2018-06-03T03:44:46.654Z,78.90
2018-06-03T03:47:14.067Z,79.00
2018-06-03T03:49:41.471Z,78.80
2018-06-03T03:52:08.842Z,78.90
2018-06-03T03:54:36.257Z,78.80
2018-06-03T03:57:03.651Z,78.80
2018-06-03T03:59:31.087Z,79.00
2018-06-03T04:01:58.482Z,79.20
2018-06-03T04:04:25.871Z,79.20
2018-06-03T04:06:53.264Z,80.10
2018-06-03T04:09:20.660Z,79.40
2018-06-03T04:14:15.451Z,79.30
2018-06-03T04:16:42.863Z,79.50
2018-06-03T04:19:10.245Z,79.20
2018-06-03T04:21:37.635Z,79.40
2018-06-03T04:24:05.027Z,79.40
2018-06-03T04:26:32.409Z,79.40
2018-06-03T04:28:59.801Z,79.40
2018-06-03T04:31:27.199Z,79.20
2018-06-03T04:33:54.576Z,78.90
2018-06-03T04:36:21.943Z,78.80
2018-06-03T04:38:49.320Z,78.60
2018-06-03T04:41:16.762Z,78.50
2018-06-03T04:43:44.111Z,78.40
2018-06-03T04:46:11.501Z,78.30
2018-06-03T04:48:38.885Z,78.20
2018-06-03T04:51:06.291Z,78.20
2018-06-03T04:53:33.732Z,78.10
2018-06-03T04:56:01.125Z,78.00
2018-06-03T04:58:28.511Z,77.40
2018-06-03T05:00:55.961Z,78.10
2018-06-03T05:03:23.356Z,78.10
2018-06-03T05:05:50.748Z,78.10
2018-06-03T05:08:18.140Z,78.80
2018-06-03T05:10:45.531Z,78.30
2018-06-03T05:13:12.919Z,78.40
2018-06-03T05:15:40.314Z,78.50
2018-06-03T05:18:07.709Z,78.50
2018-06-03T05:20:35.115Z,78.60
2018-06-03T05:23:02.510Z,78.60
2018-06-03T05:28:04.133Z,78.70
2018-06-03T05:30:31.516Z,78.80
2018-06-03T05:32:58.896Z,79.00
2018-06-03T05:35:26.314Z,79.40
2018-06-03T05:37:53.712Z,80.20
2018-06-03T05:40:21.111Z,80.70
2018-06-03T05:42:48.499Z,81.20
2018-06-03T05:45:15.879Z,81.30
2018-06-03T05:50:10.644Z,81.10
2018-06-03T05:52:38.004Z,80.90
2018-06-03T05:55:05.386Z,80.40
2018-06-03T05:57:32.788Z,79.90
2018-06-03T06:00:00.187Z,79.60
2018-06-03T06:02:27.584Z,77.60
2018-06-03T06:04:54.977Z,76.20
2018-06-03T06:07:22.382Z,75.00
2018-06-03T06:09:49.828Z,73.50
2018-06-03T06:12:17.315Z,71.60
2018-06-03T06:14:44.696Z,71.10
2018-06-03T06:17:12.079Z,70.50
2018-06-03T06:19:39.654Z,70.00
2018-06-03T06:22:07.056Z,69.90
2018-06-03T06:24:34.465Z,70.30
2018-06-03T06:27:01.850Z,70.60
2018-06-03T06:29:29.250Z,70.50
2018-06-03T06:31:56.621Z,70.60
2018-06-03T06:34:24.012Z,70.30
2018-06-03T06:36:51.400Z,70.30
2018-06-03T06:39:18.779Z,70.30
2018-06-03T06:41:46.167Z,70.50
2018-06-03T06:44:13.547Z,71.10
2018-06-03T06:46:40.944Z,70.10
2018-06-03T06:51:35.707Z,69.40
2018-06-03T06:54:03.164Z,70.00
2018-06-03T06:56:30.571Z,69.80
2018-06-03T06:58:57.988Z,69.50
2018-06-03T07:01:25.384Z,68.80
2018-06-03T07:03:52.796Z,69.20
2018-06-03T07:06:20.179Z,69.40
2018-06-03T07:08:47.678Z,68.80
2018-06-03T07:11:15.060Z,68.50
2018-06-03T07:13:42.470Z,68.50
2018-06-03T07:16:09.853Z,67.00
2018-06-03T07:18:37.290Z,66.90
2018-06-03T07:21:04.724Z,67.90
2018-06-03T07:23:32.128Z,67.10
2018-06-03T07:25:59.579Z,67.10
2018-06-03T07:28:26.955Z,67.30
2018-06-03T07:30:54.359Z,67.60
2018-06-03T07:33:21.747Z,68.20
2018-06-03T07:35:49.143Z,68.50
2018-06-03T07:38:16.605Z,68.60
2018-06-03T07:40:44.037Z,67.70
2018-06-03T07:43:11.455Z,67.50
2018-06-03T07:45:38.853Z,65.70
2018-06-03T07:48:06.278Z,65.60
2018-06-03T07:50:33.661Z,65.30
2018-06-03T07:53:01.040Z,66.00
2018-06-03T07:55:28.433Z,66.10
2018-06-03T07:57:55.819Z,65.60
2018-06-03T08:00:23.188Z,65.90
2018-06-03T08:02:50.584Z,65.00
2018-06-03T08:05:17.971Z,65.20
2018-06-03T08:07:45.371Z,64.80
2018-06-03T08:10:12.820Z,64.70
2018-06-03T08:12:40.195Z,64.10
2018-06-03T08:15:07.581Z,63.20
2018-06-03T08:17:34.963Z,63.40
2018-06-03T08:20:02.367Z,64.40
2018-06-03T08:22:29.761Z,63.70
2018-06-03T08:24:57.174Z,63.00
2018-06-03T08:27:24.566Z,62.20
2018-06-03T08:29:51.989Z,62.50
2018-06-03T08:32:19.359Z,61.20
2018-06-03T08:34:46.742Z,60.90
2018-06-03T08:37:14.127Z,60.70
2018-06-03T08:39:41.508Z,60.50
2018-06-03T08:42:08.901Z,60.70
2018-06-03T08:44:36.304Z,60.70
2018-06-03T08:47:03.715Z,61.40
2018-06-03T08:49:31.158Z,60.90
2018-06-03T08:51:58.616Z,60.80
2018-06-03T08:54:26.387Z,60.90
2018-06-03T08:56:53.792Z,61.10
2018-06-03T08:59:21.168Z,61.00
2018-06-03T09:01:48.608Z,62.10
2018-06-03T09:04:16.025Z,61.40
2018-06-03T09:06:43.425Z,61.00
2018-06-03T09:09:10.850Z,60.00
2018-06-03T09:11:38.267Z,59.30
2018-06-03T09:14:05.621Z,58.90
2018-06-03T09:16:33.037Z,58.70
2018-06-03T09:19:00.722Z,58.80
2018-06-03T09:21:28.294Z,59.10
2018-06-03T09:23:55.689Z,58.40
2018-06-03T09:26:23.069Z,58.80
2018-06-03T09:28:50.465Z,58.90
2018-06-03T09:31:18.807Z,59.10
2018-06-03T09:33:46.275Z,59.10
2018-06-03T09:36:13.709Z,59.40
2018-06-03T09:38:41.644Z,59.60
2018-06-03T09:41:09.050Z,59.60
2018-06-03T09:43:36.462Z,59.60
2018-06-03T09:48:32.481Z,58.70
2018-06-03T09:50:59.905Z,59.80
2018-06-03T09:53:27.296Z,60.00
2018-06-03T09:55:54.807Z,60.60
2018-06-03T09:58:22.211Z,60.60
2018-06-03T10:00:49.608Z,60.70
2018-06-03T10:03:17.009Z,60.90
2018-06-03T10:05:44.407Z,60.60
2018-06-03T10:08:11.804Z,60.00
2018-06-03T10:10:39.200Z,59.90
2018-06-03T10:13:06.602Z,59.70
2018-06-03T10:15:34.039Z,59.70
2018-06-03T10:18:01.421Z,58.90
2018-06-03T10:20:28.824Z,59.00
2018-06-03T10:22:56.229Z,58.30
2018-06-03T10:27:51.024Z,58.00
2018-06-03T10:30:18.436Z,58.20
2018-06-03T10:32:45.805Z,57.50
2018-06-03T10:35:13.207Z,57.60
2018-06-03T10:37:40.593Z,57.50
2018-06-03T10:40:07.993Z,57.90
2018-06-03T10:42:35.387Z,57.30
2018-06-03T10:45:02.921Z,57.70
2018-06-03T10:47:30.353Z,58.60
2018-06-03T10:49:57.732Z,57.80
2018-06-03T10:52:25.156Z,57.40
2018-06-03T10:54:52.665Z,57.30
2018-06-03T10:57:20.049Z,56.80
2018-06-03T10:59:47.480Z,57.30
2018-06-03T11:02:14.874Z,57.30
2018-06-03T11:04:42.295Z,55.90
2018-06-03T11:07:09.708Z,55.20
2018-06-03T11:09:37.127Z,55.50
2018-06-03T11:12:04.539Z,55.10
2018-06-03T11:14:31.943Z,54.70
2018-06-03T11:16:59.336Z,54.60
2018-06-03T11:19:26.715Z,53.90
2018-06-03T11:21:54.112Z,53.60
2018-06-03T11:24:21.528Z,53.20
2018-06-03T11:26:48.956Z,53.40
2018-06-03T11:31:43.744Z,52.90
2018-06-03T11:34:11.136Z,52.80
2018-06-03T11:36:38.504Z,52.60
2018-06-03T11:39:07.616Z,52.20
2018-06-03T11:41:35.011Z,52.00
2018-06-03T11:44:02.645Z,51.90
2018-06-03T11:46:30.056Z,51.10
2018-06-03T11:48:57.423Z,50.40
2018-06-03T11:51:24.820Z,52.00
2018-06-03T11:53:52.239Z,52.30
2018-06-03T11:56:19.605Z,51.30
2018-06-03T11:58:55.609Z,51.60
2018-06-03T12:01:23.745Z,51.50
2018-06-03T12:03:51.193Z,52.40
2018-06-03T12:06:18.614Z,51.10
2018-06-03T12:08:45.995Z,51.40
2018-06-03T12:11:13.395Z,51.10
2018-06-03T12:13:40.872Z,50.90
2018-06-03T12:16:08.261Z,50.80
2018-06-03T12:18:35.635Z,51.90
2018-06-03T12:21:03.060Z,48.90
2018-06-03T12:23:30.440Z,47.10
2018-06-03T12:25:57.867Z,49.20
2018-06-03T12:28:25.312Z,46.70
2018-06-03T12:30:52.696Z,47.10
2018-06-03T12:33:20.113Z,47.70
2018-06-03T12:35:47.508Z,49.50
2018-06-03T12:38:14.918Z,50.50
2018-06-03T12:40:42.320Z,49.30
2018-06-03T12:43:09.729Z,50.40
2018-06-03T12:45:37.140Z,49.70
2018-06-03T12:48:04.903Z,50.10
2018-06-03T12:50:32.319Z,50.80
2018-06-03T12:52:59.687Z,51.40
2018-06-03T12:55:27.170Z,52.40
2018-06-03T12:57:54.599Z,50.10
2018-06-03T13:02:49.343Z,49.30
2018-06-03T13:05:16.785Z,49.90
2018-06-03T13:07:44.979Z,49.90
2018-06-03T13:10:12.353Z,48.40
2018-06-03T13:12:39.796Z,49.30
2018-06-03T13:15:07.173Z,49.30
2018-06-03T13:17:35.114Z,49.80
2018-06-03T13:20:02.570Z,50.80
2018-06-03T13:22:29.916Z,50.30
2018-06-03T13:24:57.333Z,51.20
2018-06-03T13:27:24.751Z,50.70
2018-06-03T13:29:52.120Z,51.90
2018-06-03T13:32:19.537Z,50.50
2018-06-03T13:34:46.921Z,51.20
2018-06-03T13:37:14.315Z,51.10
2018-06-03T13:39:41.692Z,51.20
2018-06-03T13:42:09.109Z,51.90
2018-06-03T13:44:36.500Z,52.40
2018-06-03T13:47:04.088Z,52.20
2018-06-03T13:49:31.478Z,52.80
2018-06-03T13:51:58.874Z,52.70
2018-06-03T13:54:27.280Z,53.50
2018-06-03T13:56:54.704Z,52.80
2018-06-03T13:59:22.087Z,51.50
2018-06-03T14:01:49.535Z,49.10
2018-06-03T14:04:16.915Z,48.60
2018-06-03T14:06:44.287Z,49.70
2018-06-03T14:09:11.667Z,50.50
2018-06-03T14:11:39.049Z,51.50
2018-06-03T14:14:06.415Z,51.80
2018-06-03T14:16:33.832Z,51.20
2018-06-03T14:19:01.216Z,50.50
2018-06-03T14:21:28.587Z,50.90
2018-06-03T14:23:55.959Z,51.00
2018-06-03T14:26:23.356Z,50.20
2018-06-03T14:28:50.739Z,50.40
2018-06-03T14:31:18.115Z,49.70
2018-06-03T14:33:45.512Z,47.80
2018-06-03T14:36:12.875Z,47.20
2018-06-03T14:38:40.220Z,46.90
2018-06-03T14:41:07.628Z,44.30
2018-06-03T14:43:35.023Z,44.00
2018-06-03T14:46:02.389Z,45.40
2018-06-03T14:48:29.754Z,46.80
2018-06-03T14:50:57.112Z,47.60
2018-06-03T14:53:24.476Z,47.30
2018-06-03T14:55:51.893Z,47.10
2018-06-03T14:58:19.294Z,47.00
2018-06-03T15:00:46.607Z,48.10
2018-06-03T15:03:14.171Z,48.40
2018-06-03T15:05:41.589Z,49.20
2018-06-03T15:08:09.070Z,47.00
2018-06-03T15:10:36.640Z,46.60
2018-06-03T15:13:03.987Z,46.30
2018-06-03T15:15:31.351Z,47.60
2018-06-03T15:17:58.908Z,48.10
2018-06-03T15:20:26.327Z,48.60
2018-06-03T15:22:53.699Z,48.90
2018-06-03T15:25:21.064Z,49.10
2018-06-03T15:27:48.419Z,49.30
2018-06-03T15:30:15.767Z,49.40
2018-06-03T15:35:17.347Z,47.90
2018-06-03T15:37:44.732Z,48.50
2018-06-03T15:40:12.098Z,48.00
2018-06-03T15:42:39.468Z,47.30
2018-06-03T15:45:06.844Z,46.60
2018-06-03T15:47:34.232Z,46.50
2018-06-03T15:50:01.612Z,46.90
2018-06-03T15:52:28.985Z,47.20
2018-06-03T15:54:56.340Z,47.50
2018-06-03T15:57:23.716Z,47.60
2018-06-03T15:59:51.088Z,47.70
2018-06-03T16:02:18.479Z,48.20
2018-06-03T16:07:15.396Z,46.70
2018-06-03T16:09:42.812Z,46.50
2018-06-03T16:12:10.184Z,46.10
2018-06-03T16:14:37.524Z,46.40
2018-06-03T16:17:04.892Z,48.00
2018-06-03T16:19:32.311Z,48.00
2018-06-03T16:21:59.724Z,48.40
2018-06-03T16:24:27.132Z,46.80
2018-06-03T16:26:54.491Z,47.40
2018-06-03T16:29:21.839Z,46.00
2018-06-03T16:31:49.225Z,45.50
2018-06-03T16:34:16.629Z,45.70
2018-06-03T16:36:43.975Z,45.80
2018-06-03T16:39:11.685Z,46.30
2018-06-03T16:41:39.075Z,47.10
2018-06-03T16:44:06.458Z,45.20
2018-06-03T16:46:33.787Z,45.90
2018-06-03T16:49:01.147Z,46.50
2018-06-03T16:51:28.527Z,45.30
2018-06-03T16:53:55.877Z,45.60
2018-06-03T16:56:23.252Z,46.00
2018-06-03T16:58:50.607Z,45.90
2018-06-03T17:01:18.013Z,46.30
2018-06-03T17:03:45.407Z,47.30
2018-06-03T17:06:12.763Z,48.50
2018-06-03T17:08:40.119Z,48.60
2018-06-03T17:11:07.489Z,48.10
2018-06-03T17:13:34.835Z,47.70
2018-06-03T17:16:02.244Z,48.10
2018-06-03T17:18:29.890Z,48.30
2018-06-03T17:20:57.280Z,47.00
2018-06-03T17:23:24.637Z,45.50
2018-06-03T17:25:52.035Z,45.60
2018-06-03T17:28:19.412Z,46.00
2018-06-03T17:30:46.786Z,46.30
2018-06-03T17:33:14.160Z,46.60
2018-06-03T17:35:41.560Z,46.50
2018-06-03T17:38:08.912Z,47.20
2018-06-03T17:43:03.634Z,47.50
2018-06-03T17:45:31.013Z,46.20
2018-06-03T17:47:58.393Z,46.90
2018-06-03T17:50:25.739Z,47.50
2018-06-03T17:52:53.091Z,47.70
2018-06-03T17:55:20.470Z,47.80
2018-06-03T17:57:47.810Z,47.80
2018-06-03T18:00:15.156Z,47.50
2018-06-03T18:02:42.773Z,47.40
2018-06-03T18:05:10.150Z,47.50
2018-06-03T18:07:37.549Z,47.30
2018-06-03T18:10:04.907Z,47.00
2018-06-03T18:12:32.261Z,47.00
2018-06-03T18:14:59.611Z,46.90
2018-06-03T18:17:26.995Z,46.90
2018-06-03T18:19:54.369Z,47.00
2018-06-03T18:22:21.727Z,46.90
2018-06-03T18:24:49.091Z,46.90
2018-06-03T18:27:16.423Z,46.90
2018-06-03T18:29:43.801Z,47.10
2018-06-03T18:32:11.209Z,47.00
2018-06-03T18:34:38.625Z,47.00
2018-06-03T18:37:06.007Z,47.10
2018-06-03T18:39:33.375Z,47.30
2018-06-03T18:44:28.159Z,47.60
2018-06-03T18:46:55.542Z,47.80
2018-06-03T18:49:22.896Z,48.10
2018-06-03T18:51:50.243Z,48.30
2018-06-03T18:54:17.609Z,48.40
2018-06-03T18:56:44.983Z,48.70
2018-06-03T18:59:12.377Z,48.70
2018-06-03T19:01:39.759Z,48.70
2018-06-03T19:04:07.151Z,48.80
2018-06-03T19:06:34.503Z,48.90
2018-06-03T19:09:01.859Z,49.10
2018-06-03T19:11:29.237Z,49.50
2018-06-03T19:13:56.643Z,49.90
2018-06-03T19:16:23.996Z,50.10
2018-06-03T19:18:51.336Z,50.50
2018-06-03T19:21:18.673Z,51.20
2018-06-03T19:23:46.079Z,51.00
2018-06-03T19:28:40.771Z,51.80
2018-06-03T19:31:08.201Z,52.20
2018-06-03T19:33:35.563Z,52.50
2018-06-03T19:36:02.975Z,52.60
2018-06-03T19:38:30.360Z,53.00
2018-06-03T19:40:57.782Z,53.40
2018-06-03T19:45:52.504Z,54.10
2018-06-03T19:48:19.902Z,54.30
2018-06-03T19:50:47.277Z,54.40
2018-06-03T19:53:14.672Z,54.70
2018-06-03T19:55:42.033Z,55.30
2018-06-03T19:58:09.453Z,55.70
2018-06-03T20:00:37.011Z,56.00
2018-06-03T20:03:04.407Z,56.90
2018-06-03T20:05:31.769Z,56.70
2018-06-03T20:07:59.140Z,56.80
2018-06-03T20:10:26.515Z,57.20
2018-06-03T20:12:53.892Z,57.40
2018-06-03T20:15:21.443Z,58.30
2018-06-03T20:17:52.632Z,58.00
2018-06-03T20:20:20.185Z,58.30
2018-06-03T20:22:47.604Z,58.50
2018-06-03T20:25:14.947Z,58.80
2018-06-03T20:27:42.323Z,59.10
2018-06-03T20:30:09.696Z,59.20
2018-06-03T20:32:37.063Z,59.50
2018-06-03T20:35:04.429Z,59.50
2018-06-03T20:37:31.801Z,59.60
2018-06-03T20:39:59.156Z,59.90
2018-06-03T20:44:53.951Z,60.20
2018-06-03T20:47:21.300Z,60.50
2018-06-03T20:49:48.672Z,60.70
2018-06-03T20:52:16.088Z,60.90
2018-06-03T20:54:43.449Z,61.10
2018-06-03T20:57:10.796Z,61.20
2018-06-03T20:59:38.229Z,61.20
2018-06-03T21:02:05.594Z,61.60
2018-06-03T21:04:32.943Z,61.80
2018-06-03T21:07:00.567Z,62.00
2018-06-03T21:09:27.911Z,62.10
2018-06-03T21:11:55.271Z,62.30
2018-06-03T21:14:22.623Z,62.50
2018-06-03T21:16:49.984Z,62.70
2018-06-03T21:19:17.359Z,62.80
2018-06-03T21:21:44.728Z,63.20
2018-06-03T21:24:12.070Z,63.30
2018-06-03T21:26:39.408Z,63.50
2018-06-03T21:29:06.774Z,63.60
2018-06-03T21:31:34.112Z,64.00
2018-06-03T21:34:01.449Z,63.80
2018-06-03T21:36:28.818Z,64.00
2018-06-03T21:38:56.161Z,64.00
2018-06-03T21:41:23.493Z,64.10
2018-06-03T21:43:51.012Z,64.30
2018-06-03T21:48:45.705Z,64.30
2018-06-03T21:51:13.044Z,64.30
2018-06-03T21:53:40.387Z,65.00
2018-06-03T21:56:07.744Z,65.00
2018-06-03T21:58:35.103Z,65.40
2018-06-03T22:01:02.477Z,66.50
2018-06-03T22:03:29.838Z,66.60
2018-06-03T22:05:57.188Z,66.80
2018-06-03T22:08:24.528Z,66.70
2018-06-03T22:10:51.884Z,66.50
2018-06-03T22:13:19.253Z,66.70
2018-06-03T22:18:14.024Z,66.70
2018-06-03T22:20:41.378Z,67.40
2018-06-03T22:23:08.756Z,67.40
2018-06-03T22:25:36.107Z,67.30
2018-06-03T22:28:03.491Z,67.30
2018-06-03T22:32:58.168Z,68.10
2018-06-03T22:35:25.541Z,68.00
2018-06-03T22:37:52.912Z,67.90
2018-06-03T22:40:20.299Z,67.50
2018-06-03T22:42:47.771Z,68.10
2018-06-03T22:45:15.112Z,67.90
2018-06-03T22:47:42.483Z,67.90
2018-06-03T22:50:09.841Z,67.90
2018-06-03T22:52:37.179Z,67.90
2018-06-03T22:55:04.715Z,67.90
2018-06-03T22:57:44.861Z,68.30
2018-06-03T23:00:29.831Z,68.30
2018-06-03T23:03:02.943Z,68.80
2018-06-03T23:05:30.572Z,68.70
2018-06-03T23:07:58.019Z,69.10
2018-06-03T23:10:25.448Z,69.50
2018-06-03T23:12:52.883Z,69.50
2018-06-03T23:15:20.295Z,69.70
2018-06-03T23:17:48.067Z,69.70
2018-06-03T23:20:15.491Z,70.70
2018-06-03T23:22:42.879Z,70.60
2018-06-03T23:25:10.284Z,70.50
2018-06-03T23:30:05.097Z,70.90
2018-06-03T23:32:32.500Z,70.40
2018-06-03T23:34:59.906Z,70.40
2018-06-03T23:37:27.303Z,70.20
2018-06-03T23:39:54.691Z,71.10
2018-06-03T23:42:22.070Z,70.70
2018-06-03T23:44:49.483Z,70.80
2018-06-03T23:47:16.883Z,70.80
2018-06-03T23:49:44.259Z,70.90
2018-06-03T23:52:11.630Z,71.20
2018-06-03T23:54:39.206Z,71.10
2018-06-03T23:57:06.600Z,71.30
2018-06-03T23:59:33.980Z,71.40
